Time;durP1;ratioP1;P1;durP2;ratioP2;P2;SDS_P1;SDS_P2;PMS_P1;PMS_P2;Temp;Humidity;BMP_temperature;BMP_pressure;BME280_temperature;BME280_humidity;BME280_pressure;Samples;Min_cycle;Max_cycle;Signal;HPM_P1;HPM_P2
2022/11/25 00:00:12;;;;;;;;;3.25;3.25;;;;;12.81;71.13;100930.69;2393273;28;45214;-87
2022/11/25 00:01:26;;;;;;;;;4.50;1.75;;;;;12.85;71.33;100930.56;2375041;28;47062;-87
2022/11/25 00:02:42;;;;;;;;;8.00;4.50;;;;;12.81;71.42;100925.44;2386792;28;45327;-87
2022/11/25 00:03:56;;;;;;;;;5.50;3.00;;;;;12.79;71.26;100914.06;2384002;28;48220;-87
2022/11/25 00:05:07;;;;;;;;;2.25;2.25;;;;;12.79;71.25;100916.69;2387462;28;45444;-87
2022/11/25 00:06:26;;;;;;;;;6.00;4.00;;;;;12.81;71.30;100924.56;2393178;28;45347;-86
2022/11/25 00:07:37;;;;;;;;;7.25;3.50;;;;;12.80;71.57;100926.34;2383947;28;44736;-86
2022/11/25 00:08:50;;;;;;;;;4.50;3.00;;;;;12.81;71.72;100927.19;2390119;28;45467;-85
2022/11/25 00:10:01;;;;;;;;;4.00;4.00;;;;;12.80;71.41;100928.97;2380178;28;45493;-87
2022/11/25 00:11:13;;;;;;;;;3.50;3.00;;;;;12.80;71.52;100928.97;2380188;28;45575;-86
2022/11/25 00:12:23;;;;;;;;;8.25;4.00;;;;;12.80;71.33;100928.09;2394214;28;44786;-87
2022/11/25 00:13:34;;;;;;;;;5.50;3.50;;;;;12.78;71.71;100922.91;2383020;28;47038;-87
2022/11/25 00:14:44;;;;;;;;;5.25;3.00;;;;;12.79;71.88;100927.25;2377224;28;45294;-87
2022/11/25 00:15:55;;;;;;;;;6.75;3.75;;;;;12.78;71.64;100925.53;2376952;28;46863;-87
2022/11/25 00:17:05;;;;;;;;;8.00;4.50;;;;;12.77;71.68;100920.31;2382396;28;45290;-87
2022/11/25 00:18:15;;;;;;;;;5.50;3.25;;;;;12.77;71.57;100917.66;2393817;28;46629;-86
2022/11/25 00:19:26;;;;;;;;;7.75;2.75;;;;;12.77;71.51;100920.31;2394141;28;45278;-87
2022/11/25 00:20:36;;;;;;;;;3.75;3.75;;;;;12.77;71.58;100928.22;2391766;28;46411;-86
2022/11/25 00:21:46;;;;;;;;;3.75;3.00;;;;;12.76;71.52;100929.16;2386620;28;45224;-86
2022/11/25 00:22:57;;;;;;;;;2.00;2.00;;;;;12.75;71.88;100925.66;2383628;28;48233;-88
2022/11/25 00:24:07;;;;;;;;;4.25;3.00;;;;;12.74;71.56;100918.66;2377189;28;44781;-87
2022/11/25 00:25:18;;;;;;;;;4.00;2.50;;;;;12.76;71.54;100913.31;2385492;28;45457;-87
2022/11/25 00:26:31;;;;;;;;;5.00;2.75;;;;;12.77;71.47;100907.13;2393321;28;45420;-87
2022/11/25 00:27:41;;;;;;;;;4.75;3.00;;;;;12.76;71.56;100911.56;2393841;28;45390;-87
2022/11/25 00:28:53;;;;;;;;;3.25;3.25;;;;;12.77;71.59;100929.09;2394095;28;45240;-87
2022/11/25 00:30:04;;;;;;;;;3.00;2.50;;;;;12.78;71.41;100929.94;2383628;28;48170;-86
2022/11/25 00:31:25;;;;;;;;;6.75;5.50;;;;;12.77;71.47;100934.34;2385630;28;45464;-86
2022/11/25 00:32:36;;;;;;;;;4.25;3.00;;;;;12.74;71.72;100929.19;2389735;28;45468;-86
2022/11/25 00:33:46;;;;;;;;;3.75;3.75;;;;;12.76;71.56;100935.28;2393345;28;44759;-87
2022/11/25 00:34:57;;;;;;;;;1.75;0.00;;;;;12.76;71.29;100932.66;2392748;28;46161;-87
2022/11/25 00:36:22;;;;;;;;;6.00;2.50;;;;;12.74;71.52;100929.19;2383623;28;44679;-87
2022/11/25 00:37:33;;;;;;;;;4.00;4.00;;;;;12.73;71.84;100927.50;2383631;28;47446;-86
2022/11/25 00:38:44;;;;;;;;;3.50;3.00;;;;;12.74;71.60;100933.63;2386622;28;45212;-86
2022/11/25 00:39:54;;;;;;;;;4.00;3.75;;;;;12.72;71.73;100928.41;2379723;28;47096;-86
2022/11/25 00:45:31;;;;;;;;;6.25;3.25;;;;;12.71;71.59;100937.25;2384362;28;45869;-87
2022/11/25 00:46:42;;;;;;;;;5.50;5.25;;;;;12.71;71.73;100940.75;2376495;28;44761;-87
2022/11/25 00:47:53;;;;;;;;;4.00;4.00;;;;;12.69;71.86;100942.56;2378194;28;45399;-86
2022/11/25 00:49:03;;;;;;;;;5.25;3.25;;;;;12.70;71.60;100940.78;2385067;28;45511;-86
2022/11/25 00:50:14;;;;;;;;;2.75;2.75;;;;;12.70;71.69;100946.94;2378761;28;46117;-87
2022/11/25 00:51:24;;;;;;;;;3.50;3.25;;;;;12.68;71.78;100940.00;2386401;28;45267;-86
2022/11/25 00:52:35;;;;;;;;;8.00;4.00;;;;;12.66;71.66;100941.84;2390608;28;45329;-87
2022/11/25 00:53:46;;;;;;;;;8.25;3.25;;;;;12.67;71.65;100954.09;2391872;28;44784;-88
2022/11/25 00:54:56;;;;;;;;;4.00;4.00;;;;;12.66;71.80;100949.75;2383580;28;47670;-88
2022/11/25 00:56:12;;;;;;;;;7.00;2.50;;;;;12.66;71.76;100955.03;2385720;28;45466;-88
2022/11/25 00:57:23;;;;;;;;;5.00;3.50;;;;;12.63;71.65;100952.50;2374361;28;47154;-89
2022/11/25 00:58:33;;;;;;;;;10.00;6.00;;;;;12.61;72.00;100955.19;2373989;28;44745;-89
2022/11/25 00:59:44;;;;;;;;;6.50;3.50;;;;;12.59;71.79;100946.50;2376789;28;47244;-89
2022/11/25 01:00:54;;;;;;;;;7.00;4.00;;;;;12.60;71.64;100949.06;2383590;28;45326;-89
2022/11/25 01:02:05;;;;;;;;;3.75;3.75;;;;;12.60;71.73;100954.34;2386165;28;46567;-89
2022/11/25 01:03:16;;;;;;;;;4.50;2.00;;;;;12.58;71.44;100950.91;2383607;28;45278;-89
2022/11/25 01:04:26;;;;;;;;;3.75;3.00;;;;;12.57;71.65;100949.16;2386247;28;46466;-88
2022/11/25 01:05:36;;;;;;;;;4.50;2.75;;;;;12.56;71.73;100951.88;2393863;28;45295;-87
2022/11/25 01:06:47;;;;;;;;;4.50;2.00;;;;;12.54;71.70;100951.09;2386950;28;45656;-87
2022/11/25 01:07:57;;;;;;;;;6.25;3.00;;;;;12.52;71.62;100959.03;2382209;28;45382;-86
2022/11/25 01:09:09;;;;;;;;;4.00;3.75;;;;;12.50;71.75;100958.22;2368595;28;48217;-87
2022/11/25 01:10:20;;;;;;;;;5.00;3.00;;;;;12.47;71.92;100964.47;2386591;28;45332;-87
2022/11/25 01:11:30;;;;;;;;;3.00;2.25;;;;;12.46;71.72;100960.13;2393431;28;46548;-86
2022/11/25 01:12:40;;;;;;;;;4.00;3.00;;;;;12.44;71.85;100966.38;2392862;28;45203;-86
2022/11/25 01:13:53;;;;;;;;;4.25;2.25;;;;;12.42;71.86;100971.69;2392911;28;47906;-87
2022/11/25 01:15:04;;;;;;;;;3.00;3.00;;;;;12.39;71.81;100969.19;2392977;28;45380;-86
2022/11/25 01:16:17;;;;;;;;;6.50;4.50;;;;;12.37;71.76;100969.22;2390070;28;47127;-86
2022/11/25 01:17:27;;;;;;;;;7.50;3.25;;;;;12.36;72.06;100980.72;2371936;28;45342;-87
2022/11/25 01:18:38;;;;;;;;;2.75;2.75;;;;;12.33;71.88;100972.03;2371827;28;46154;-87
2022/11/25 01:19:48;;;;;;;;;5.50;3.00;;;;;12.33;71.89;100977.31;2383510;28;45241;-87
2022/11/25 01:21:16;;;;;;;;;6.50;3.00;;;;;12.29;71.79;100981.84;2380918;28;46994;-86
2022/11/25 01:22:26;;;;;;;;;4.75;3.00;;;;;12.25;71.59;100978.44;2374841;28;44757;-87
2022/11/25 01:23:38;;;;;;;;;3.00;1.75;;;;;12.25;71.74;100980.22;2383280;28;47026;-86
2022/11/25 01:24:48;;;;;;;;;4.00;3.75;;;;;12.23;71.71;100982.06;2372396;28;45825;-86
2022/11/25 01:26:10;;;;;;;;;7.75;3.75;;;;;12.20;71.62;100983.03;2370123;28;46900;-87
2022/11/25 01:27:20;;;;;;;;;3.75;2.75;;;;;12.18;71.91;100982.22;2370811;28;45208;-87
2022/11/25 01:28:31;;;;;;;;;2.50;2.50;;;;;12.16;71.83;100978.78;2372782;28;46533;-86
2022/11/25 01:29:42;;;;;;;;;5.25;2.75;;;;;12.14;71.98;100994.66;2383605;28;45295;-87
2022/11/25 01:31:14;;;;;;;;;6.25;3.00;;;;;12.11;71.71;100997.38;2380679;28;46274;-87
2022/11/25 01:32:25;;;;;;;;;3.75;3.75;;;;;12.07;72.13;100994.91;2382697;28;45444;-87
2022/11/25 01:33:36;;;;;;;;;2.50;2.50;;;;;12.03;72.05;100996.78;2381133;28;46306;-86
2022/11/25 01:34:46;;;;;;;;;3.00;3.00;;;;;12.00;71.85;100997.72;2374180;28;45271;-87
2022/11/25 01:36:03;;;;;;;;;2.50;2.50;;;;;11.98;72.51;101001.34;2382309;28;48554;-86
2022/11/25 01:37:14;;;;;;;;;5.00;3.25;;;;;11.96;72.17;101001.41;2378601;28;44787;-86
2022/11/25 01:38:24;;;;;;;;;5.00;2.50;;;;;11.93;72.17;101006.75;2383365;28;47364;-87
2022/11/25 01:39:34;;;;;;;;;6.50;3.00;;;;;11.91;72.09;101001.56;2381117;28;45254;-86
2022/11/25 01:40:45;;;;;;;;;3.50;2.75;;;;;11.90;72.28;101013.00;2374839;28;45753;-86
2022/11/25 01:41:55;;;;;;;;;3.00;2.50;;;;;11.87;72.02;101018.38;2374851;28;45192;-86
2022/11/25 01:43:13;;;;;;;;;4.00;4.00;;;;;11.84;72.13;101015.84;2383236;28;48305;-87
2022/11/25 01:44:27;;;;;;;;;7.25;3.25;;;;;11.82;72.26;101020.31;2374224;28;45187;-87
2022/11/25 01:45:38;;;;;;;;;3.50;3.00;;;;;11.79;72.05;101017.78;2376207;28;47543;-86
2022/11/25 01:47:04;;;;;;;;;5.25;3.50;;;;;11.78;72.08;101018.69;2377690;28;45445;-87
2022/11/25 01:48:26;;;;;;;;;6.50;4.50;;;;;11.73;72.43;101023.25;2373287;28;47311;-88
2022/11/25 01:49:38;;;;;;;;;4.00;3.25;;;;;11.72;72.35;101026.78;2378112;28;44691;-87
2022/11/25 01:50:49;;;;;;;;;5.00;3.50;;;;;11.68;72.35;101029.53;2380283;28;48173;-87
2022/11/25 01:52:21;;;;;;;;;5.50;4.00;;;;;11.67;72.30;101029.59;2374397;28;45184;-87
2022/11/25 01:53:32;;;;;;;;;3.50;3.00;;;;;11.63;72.90;101028.81;2373977;28;45593;-87
2022/11/25 01:54:54;;;;;;;;;4.25;3.00;;;;;11.61;72.81;101028.00;2374829;28;45235;-87
2022/11/25 01:56:05;;;;;;;;;2.75;2.50;;;;;11.59;72.86;101021.94;2365662;28;46138;-86
2022/11/25 01:57:29;;;;;;;;;3.75;3.50;;;;;11.60;72.92;101028.94;2372145;28;45453;-87
2022/11/25 01:58:41;;;;;;;;;4.50;4.50;;;;;11.58;72.88;101028.13;2368960;28;47978;-86
2022/11/25 01:59:55;;;;;;;;;3.25;2.25;;;;;11.57;73.04;101021.13;2373803;28;45282;-87
2022/11/25 02:01:06;;;;;;;;;6.50;4.25;;;;;11.54;73.88;101029.97;2374165;28;45684;-87
2022/11/25 02:02:17;;;;;;;;;3.50;3.00;;;;;11.53;73.09;101033.50;2374754;28;45327;-87
2022/11/25 02:03:33;;;;;;;;;5.00;3.00;;;;;11.53;72.67;101030.03;2382433;28;46126;-86
2022/11/25 02:04:45;;;;;;;;;3.50;2.25;;;;;11.54;73.06;101037.00;2380368;28;45409;-87
2022/11/25 02:06:04;;;;;;;;;3.25;2.50;;;;;11.53;73.48;101036.16;2366509;28;45464;-87
2022/11/25 02:07:32;;;;;;;;;4.25;4.25;;;;;11.52;73.19;101036.22;2369476;28;45557;-87
2022/11/25 02:08:47;;;;;;;;;5.00;4.00;;;;;11.51;73.02;101043.22;2374023;28;47109;-87
2022/11/25 02:10:00;;;;;;;;;6.25;4.00;;;;;11.50;73.53;101046.78;2376266;28;45456;-87
2022/11/25 02:11:13;;;;;;;;;4.50;4.50;;;;;11.50;73.36;101043.28;2373826;28;48237;-87
2022/11/25 02:12:25;;;;;;;;;2.00;1.50;;;;;11.50;73.49;101038.03;2367156;28;45597;-87
2022/11/25 02:13:36;;;;;;;;;3.50;2.75;;;;;11.50;73.12;101040.66;2375851;28;48651;-87
2022/11/25 02:14:50;;;;;;;;;3.50;3.50;;;;;11.48;73.36;101041.56;2383219;28;45247;-87
2022/11/25 02:16:01;;;;;;;;;5.75;3.75;;;;;11.50;73.25;101035.41;2377232;28;45394;-86
2022/11/25 02:17:11;;;;;;;;;5.00;3.00;;;;;11.48;73.37;101048.63;2387531;28;44581;-87
2022/11/25 02:18:22;;;;;;;;;5.50;3.25;;;;;11.46;73.20;101037.25;2387079;28;46998;-87
2022/11/25 02:19:44;;;;;;;;;3.75;3.75;;;;;11.46;73.28;101045.16;2392826;28;45180;-87
2022/11/25 02:20:54;;;;;;;;;7.25;4.75;;;;;11.44;73.43;101042.56;2390029;28;45671;-87
2022/11/25 02:22:13;;;;;;;;;6.25;4.50;;;;;11.44;73.34;101039.94;2389334;28;45705;-86
2022/11/25 02:23:45;;;;;;;;;6.25;4.75;;;;;11.45;73.43;101044.31;2383907;28;47290;-87
2022/11/25 02:25:06;;;;;;;;;3.00;3.00;;;;;11.42;73.24;101043.53;2380718;28;44811;-87
2022/11/25 02:26:16;;;;;;;;;6.00;5.00;;;;;11.42;73.21;101048.81;2388927;28;46238;-87
2022/11/25 02:27:27;;;;;;;;;3.25;2.50;;;;;11.42;73.32;101049.66;2394888;28;45277;-87
2022/11/25 02:28:38;;;;;;;;;2.50;2.50;;;;;11.41;73.22;101055.81;2394651;28;45361;-87
2022/11/25 02:29:50;;;;;;;;;3.50;3.50;;;;;11.39;73.34;101052.38;2384543;28;44622;-87
2022/11/25 02:31:01;;;;;;;;;5.00;3.00;;;;;11.40;73.42;101053.25;2387754;28;45276;-88
2022/11/25 02:32:11;;;;;;;;;5.00;3.50;;;;;11.38;73.31;101052.44;2389236;28;45336;-87
2022/11/25 02:33:22;;;;;;;;;4.75;3.25;;;;;11.36;73.08;101057.75;2376562;28;47294;-87
2022/11/25 02:34:32;;;;;;;;;3.75;3.75;;;;;11.37;73.15;101062.09;2384871;28;45251;-88
2022/11/25 02:35:47;;;;;;;;;3.75;3.00;;;;;11.35;73.28;101059.53;2392519;28;45327;-87
2022/11/25 02:36:58;;;;;;;;;6.25;3.75;;;;;11.35;73.55;101056.91;2394091;28;45428;-87
2022/11/25 02:38:34;;;;;;;;;4.25;2.25;;;;;11.34;73.42;101059.56;2394181;28;45596;-87
2022/11/25 02:39:46;;;;;;;;;3.00;3.00;;;;;11.33;73.34;101068.38;2381713;28;44794;-86
2022/11/25 02:41:18;;;;;;;;;6.50;3.50;;;;;11.33;73.41;101063.94;2389941;28;47960;-87
2022/11/25 02:42:29;;;;;;;;;3.00;3.00;;;;;11.32;73.47;101069.28;2384712;28;45445;-87
2022/11/25 02:43:40;;;;;;;;;4.25;1.75;;;;;11.30;73.44;101079.00;2375292;28;47238;-87
2022/11/25 02:44:50;;;;;;;;;3.75;2.75;;;;;11.29;73.39;101075.50;2379250;28;45296;-87
2022/11/25 02:46:04;;;;;;;;;3.75;3.00;;;;;11.30;73.47;101082.50;2393823;28;47443;-88
2022/11/25 02:47:15;;;;;;;;;5.50;4.75;;;;;11.29;73.62;101079.88;2381601;28;45384;-87
2022/11/25 02:48:27;;;;;;;;;2.50;2.00;;;;;11.29;73.53;101090.41;2381945;28;45473;-87
2022/11/25 02:49:38;;;;;;;;;4.50;3.50;;;;;11.29;73.62;101086.03;2394028;28;45335;-87
2022/11/25 02:50:48;;;;;;;;;4.50;3.25;;;;;11.29;73.20;101082.53;2376321;28;48294;-87
2022/11/25 02:51:58;;;;;;;;;6.50;4.25;;;;;11.27;73.29;101094.88;2380389;28;45281;-87
2022/11/25 02:53:09;;;;;;;;;3.00;3.00;;;;;11.26;73.76;101086.09;2384174;28;47115;-87
2022/11/25 02:54:20;;;;;;;;;3.50;2.00;;;;;11.25;73.50;101094.94;2387445;28;44715;-87
2022/11/25 02:55:30;;;;;;;;;6.75;4.00;;;;;11.27;73.48;101095.72;2393525;28;45373;-87
2022/11/25 02:56:41;;;;;;;;;5.00;3.25;;;;;11.25;73.79;101095.78;2393982;28;45278;-87
2022/11/25 02:57:51;;;;;;;;;3.25;3.00;;;;;11.24;73.58;101099.31;2384032;28;47416;-87
2022/11/25 02:59:03;;;;;;;;;0.00;0.00;;;;;11.24;73.62;101099.31;2377940;28;45292;-87
2022/11/25 03:00:14;;;;;;;;;4.00;4.00;;;;;11.24;73.87;101103.72;2386412;28;45431;-87
2022/11/25 03:01:25;;;;;;;;;6.75;2.75;;;;;11.21;73.40;101104.66;2384621;28;45477;-87
2022/11/25 03:02:35;;;;;;;;;4.25;4.00;;;;;11.20;73.44;101097.69;2387242;28;45410;-87
2022/11/25 03:03:46;;;;;;;;;4.25;3.25;;;;;11.21;73.76;101104.66;2393824;28;45318;-87
2022/11/25 03:04:56;;;;;;;;;4.50;3.50;;;;;11.20;73.70;101108.22;2392717;28;45708;-87
2022/11/25 03:06:07;;;;;;;;;4.00;3.75;;;;;11.20;73.96;101100.34;2388405;28;45551;-87
2022/11/25 03:07:17;;;;;;;;;2.75;2.75;;;;;11.19;73.62;101117.00;2392410;28;46504;-87
2022/11/25 03:08:28;;;;;;;;;3.75;3.75;;;;;11.19;73.44;101108.25;2392951;28;45402;-87
2022/11/25 03:09:38;;;;;;;;;4.50;4.00;;;;;11.19;73.61;101111.75;2384693;28;45330;-87
2022/11/25 03:10:49;;;;;;;;;3.00;3.00;;;;;11.16;73.61;101108.34;2389730;28;45270;-87
2022/11/25 03:13:29;;;;;;;;;7.25;3.00;;;;;11.13;73.71;101118.06;2389852;28;45354;-87
2022/11/25 03:14:39;;;;;;;;;5.75;2.50;;;;;11.12;73.85;101115.47;2394484;28;46499;-87
2022/11/25 03:15:49;;;;;;;;;5.50;3.75;;;;;11.12;73.76;101118.97;2389802;28;44817;-87
2022/11/25 03:17:00;;;;;;;;;6.25;5.00;;;;;11.12;73.63;101120.72;2386575;28;45293;-87
2022/11/25 03:18:10;;;;;;;;;7.25;4.25;;;;;11.13;73.69;101122.47;2391108;28;45216;-87
2022/11/25 03:19:20;;;;;;;;;6.75;3.00;;;;;11.11;73.55;101119.84;2375987;28;47074;-87
2022/11/25 03:20:31;;;;;;;;;6.00;6.00;;;;;11.12;73.64;101126.00;2382842;28;45311;-87
2022/11/25 03:21:41;;;;;;;;;4.75;3.00;;;;;11.10;73.75;101128.69;2394419;28;45224;-87
2022/11/25 03:22:51;;;;;;;;;6.50;2.00;;;;;11.11;73.93;101129.53;2394507;28;45241;-87
2022/11/25 03:24:02;;;;;;;;;5.25;3.00;;;;;11.10;73.65;101130.44;2393517;28;48099;-88
2022/11/25 03:25:13;;;;;;;;;9.25;4.00;;;;;11.09;73.92;101133.97;2387143;28;45449;-87
2022/11/25 03:26:25;;;;;;;;;7.25;4.25;;;;;11.08;74.03;101127.88;2376210;28;47122;-87
2022/11/25 03:27:36;;;;;;;;;3.50;3.00;;;;;11.08;73.73;101137.50;2384368;28;45360;-87
2022/11/25 03:28:46;;;;;;;;;6.75;4.00;;;;;11.08;73.56;101132.25;2386913;28;45355;-87
2022/11/25 03:29:57;;;;;;;;;5.50;4.25;;;;;11.08;73.83;101148.03;2394146;28;45364;-87
2022/11/25 03:31:11;;;;;;;;;5.00;3.75;;;;;11.06;73.91;101148.09;2394149;28;45434;-87
2022/11/25 03:32:21;;;;;;;;;3.00;3.00;;;;;11.04;73.83;101144.63;2393587;28;45416;-87
2022/11/25 03:33:31;;;;;;;;;6.50;4.00;;;;;11.07;74.17;101154.19;2390949;28;47212;-87
2022/11/25 03:34:42;;;;;;;;;7.00;4.00;;;;;11.03;74.14;101150.81;2376260;28;45294;-87
2022/11/25 03:35:52;;;;;;;;;4.25;4.25;;;;;11.04;74.20;101147.25;2384325;28;46188;-87
2022/11/25 03:37:02;;;;;;;;;6.00;4.00;;;;;11.06;73.56;101155.13;2387055;28;45215;-87
2022/11/25 03:38:12;;;;;;;;;4.00;4.00;;;;;11.05;74.08;101154.25;2393522;28;45400;-87
2022/11/25 03:39:23;;;;;;;;;2.25;2.25;;;;;11.05;73.90;101158.63;2394484;28;44576;-87
2022/11/25 03:40:33;;;;;;;;;4.75;3.25;;;;;11.02;73.97;101157.81;2394142;28;45467;-87
2022/11/25 03:41:44;;;;;;;;;6.00;4.00;;;;;11.04;74.17;101157.78;2394336;28;44680;-88
2022/11/25 03:42:54;;;;;;;;;7.75;3.00;;;;;11.03;73.90;101164.81;2393598;28;45460;-87
2022/11/25 03:44:04;;;;;;;;;7.00;3.00;;;;;11.03;74.05;101163.97;2394397;28;45330;-87
2022/11/25 03:45:16;;;;;;;;;6.00;5.00;;;;;11.06;73.72;101173.53;2383199;28;46749;-87
2022/11/25 03:46:26;;;;;;;;;5.50;4.00;;;;;11.05;73.98;101174.44;2384106;28;45698;-87
2022/11/25 03:47:36;;;;;;;;;6.25;4.00;;;;;11.02;74.05;101173.59;2384066;28;47954;-87
2022/11/25 03:48:46;;;;;;;;;6.00;3.50;;;;;11.03;73.81;101175.34;2376696;28;45492;-87
2022/11/25 03:49:57;;;;;;;;;4.25;3.50;;;;;11.01;73.90;101177.13;2386760;28;45567;-88
2022/11/25 03:51:07;;;;;;;;;8.25;6.25;;;;;11.02;74.00;101185.88;2394283;28;45341;-88
2022/11/25 03:52:17;;;;;;;;;6.00;3.50;;;;;11.01;73.98;101184.19;2394098;28;45413;-87
2022/11/25 03:53:28;;;;;;;;;5.00;3.75;;;;;11.00;73.75;101174.56;2393317;28;45395;-87
2022/11/25 03:54:38;;;;;;;;;4.00;4.00;;;;;10.99;73.76;101186.84;2393368;28;45238;-86
2022/11/25 03:55:49;;;;;;;;;3.00;3.00;;;;;10.99;73.82;101184.22;2394392;28;44690;-87
2022/11/25 03:56:59;;;;;;;;;3.75;2.00;;;;;10.99;73.77;101189.47;2383686;28;47121;-87
2022/11/25 03:58:09;;;;;;;;;5.00;4.00;;;;;10.97;73.58;101186.03;2377016;28;45236;-88
2022/11/25 03:59:20;;;;;;;;;6.75;4.00;;;;;10.96;73.55;101181.69;2384213;28;45215;-87
2022/11/25 04:00:32;;;;;;;;;5.50;3.00;;;;;10.97;73.72;101190.41;2384112;28;45181;-87
2022/11/25 04:01:43;;;;;;;;;4.50;4.50;;;;;10.96;73.75;101189.56;2383361;28;47025;-87
2022/11/25 04:02:53;;;;;;;;;4.00;4.00;;;;;10.97;73.50;101190.41;2377510;28;45264;-87
2022/11/25 04:04:03;;;;;;;;;3.00;3.00;;;;;10.96;73.74;101194.84;2380477;28;45490;-87
2022/11/25 04:05:14;;;;;;;;;9.75;5.75;;;;;10.95;73.82;101190.47;2393501;28;45243;-87
2022/11/25 04:06:24;;;;;;;;;6.00;4.25;;;;;10.94;73.58;101190.53;2392747;28;45418;-87
2022/11/25 04:07:34;;;;;;;;;7.50;5.00;;;;;10.92;73.80;101198.44;2393486;28;45380;-87
2022/11/25 04:08:45;;;;;;;;;4.50;4.00;;;;;10.91;73.90;101192.31;2400835;28;45516;-87
2022/11/25 04:09:55;;;;;;;;;5.75;4.00;;;;;10.91;73.62;101194.09;2399689;28;45252;-87
2022/11/25 04:11:06;;;;;;;;;8.50;4.50;;;;;10.90;73.53;101195.84;2393195;28;47005;-87
2022/11/25 04:13:45;;;;;;;;;5.00;4.25;;;;;10.87;73.75;101198.56;2392863;28;45684;-87
2022/11/25 04:14:55;;;;;;;;;4.25;4.00;;;;;10.87;73.87;101195.06;2381301;28;45287;-87
2022/11/25 04:16:13;;;;;;;;;3.25;3.25;;;;;10.86;73.85;101193.34;2377361;28;45446;-87
2022/11/25 04:17:23;;;;;;;;;5.00;3.00;;;;;10.83;73.67;101189.03;2393680;28;45336;-87
2022/11/25 04:18:34;;;;;;;;;5.00;5.00;;;;;10.85;73.96;101194.25;2393906;28;46365;-87
2022/11/25 04:19:44;;;;;;;;;4.75;4.25;;;;;10.83;74.03;101198.69;2394004;28;45302;-88
2022/11/25 04:20:54;;;;;;;;;5.00;5.00;;;;;10.84;73.68;101200.44;2394014;28;46190;-87
2022/11/25 04:22:05;;;;;;;;;6.00;4.00;;;;;10.82;73.79;101203.06;2392892;28;44672;-87
2022/11/25 04:23:15;;;;;;;;;5.75;3.25;;;;;10.82;73.43;101208.34;2388983;28;45417;-87
2022/11/25 04:24:26;;;;;;;;;5.75;3.00;;;;;10.80;74.22;101208.38;2391651;28;45496;-87
2022/11/25 04:25:37;;;;;;;;;8.50;4.25;;;;;10.80;73.78;101210.16;2383167;28;48466;-90
2022/11/25 04:26:47;;;;;;;;;5.75;4.75;;;;;10.79;73.72;101213.69;2386057;28;45379;-89
2022/11/25 04:27:57;;;;;;;;;6.00;4.25;;;;;10.78;73.48;101218.09;2392523;28;48286;-89
2022/11/25 04:29:08;;;;;;;;;6.25;6.25;;;;;10.77;73.73;101221.59;2383942;28;45399;-87
2022/11/25 04:30:18;;;;;;;;;8.00;6.50;;;;;10.76;73.71;101227.78;2383534;28;48177;-87
2022/11/25 04:31:28;;;;;;;;;5.00;4.00;;;;;10.75;73.85;101223.41;2377042;28;45347;-87
2022/11/25 04:32:39;;;;;;;;;5.75;4.75;;;;;10.76;73.68;101224.28;2386516;28;46986;-87
2022/11/25 04:33:49;;;;;;;;;6.50;5.00;;;;;10.75;74.14;101231.31;2390865;28;45275;-87
2022/11/25 04:35:00;;;;;;;;;7.00;5.50;;;;;10.72;73.89;101233.16;2390539;28;47538;-87
2022/11/25 04:36:10;;;;;;;;;6.00;6.00;;;;;10.72;74.12;101233.16;2377158;28;44772;-87
2022/11/25 04:37:20;;;;;;;;;4.50;3.00;;;;;10.71;73.82;101234.06;2378505;28;46901;-87
2022/11/25 04:38:31;;;;;;;;;7.00;4.00;;;;;10.72;74.09;101236.63;2390688;28;45302;-87
2022/11/25 04:39:41;;;;;;;;;5.00;4.00;;;;;10.71;74.01;101229.66;2383646;28;47117;-87
2022/11/25 04:40:51;;;;;;;;;6.00;4.00;;;;;10.70;73.90;101238.44;2383823;28;45219;-87
2022/11/25 04:43:31;;;;;;;;;5.00;5.00;;;;;10.70;73.85;101243.69;2384358;28;45241;-87
2022/11/25 04:44:41;;;;;;;;;5.00;5.00;;;;;10.68;73.71;101245.50;2382195;28;46955;-87
2022/11/25 04:45:52;;;;;;;;;5.75;5.00;;;;;10.68;73.68;101245.50;2385254;28;45281;-87
2022/11/25 04:47:02;;;;;;;;;10.00;5.25;;;;;10.68;73.79;101248.13;2393437;28;46466;-87
2022/11/25 04:48:13;;;;;;;;;5.50;3.75;;;;;10.66;73.77;101249.94;2393061;28;45231;-87
2022/11/25 04:49:23;;;;;;;;;7.00;5.50;;;;;10.65;73.61;101248.22;2393296;28;45364;-87
2022/11/25 04:50:33;;;;;;;;;7.00;5.00;;;;;10.64;73.81;101246.50;2393067;28;45439;-87
2022/11/25 04:51:44;;;;;;;;;6.50;5.25;;;;;10.63;73.65;101245.63;2393713;28;45522;-86
2022/11/25 04:52:54;;;;;;;;;4.00;3.00;;;;;10.62;73.83;101253.56;2393814;28;45245;-87
2022/11/25 04:54:04;;;;;;;;;6.75;5.50;;;;;10.60;73.69;101250.09;2392959;28;45349;-86
2022/11/25 04:55:15;;;;;;;;;5.50;5.50;;;;;10.60;73.83;101250.97;2393441;28;44695;-87
2022/11/25 04:56:25;;;;;;;;;5.00;5.00;;;;;10.60;74.07;101256.22;2386642;28;45407;-87
2022/11/25 04:57:36;;;;;;;;;5.00;4.50;;;;;10.58;74.16;101258.88;2393863;28;45200;-86
2022/11/25 05:00:16;;;;;;;;;6.25;6.25;;;;;10.58;73.62;101261.53;2393592;28;45475;-87
2022/11/25 05:01:26;;;;;;;;;4.00;3.50;;;;;10.55;73.69;101265.97;2393616;28;45438;-87
2022/11/25 05:02:37;;;;;;;;;6.50;4.25;;;;;10.54;73.67;101262.47;2393088;28;44754;-86
2022/11/25 05:03:48;;;;;;;;;7.00;6.25;;;;;10.56;73.76;101270.34;2383447;28;47696;-87
2022/11/25 05:04:59;;;;;;;;;8.00;6.00;;;;;10.54;73.87;101267.72;2385725;28;44649;-87
2022/11/25 05:06:09;;;;;;;;;7.25;5.00;;;;;10.53;74.03;101273.91;2392431;28;46142;-87
2022/11/25 05:07:22;;;;;;;;;4.75;4.75;;;;;10.53;73.79;101270.41;2382900;28;45241;-87
2022/11/25 05:08:33;;;;;;;;;9.50;6.00;;;;;10.53;73.80;101270.41;2386605;28;45396;-87
2022/11/25 05:09:43;;;;;;;;;4.00;4.00;;;;;10.51;73.64;101267.81;2393175;28;44543;-86
2022/11/25 05:10:54;;;;;;;;;5.75;4.75;;;;;10.51;73.71;101277.47;2392818;28;48177;-87
2022/11/25 05:12:06;;;;;;;;;6.00;5.00;;;;;10.50;73.48;101280.94;2390540;28;45317;-87
2022/11/25 05:13:16;;;;;;;;;9.00;5.50;;;;;10.50;73.80;101275.69;2387417;28;47624;-87
2022/11/25 05:14:26;;;;;;;;;7.50;5.00;;;;;10.50;73.74;101280.94;2392409;28;45286;-87
2022/11/25 05:15:37;;;;;;;;;5.50;4.75;;;;;10.49;73.76;101284.50;2392509;28;46280;-87
2022/11/25 05:16:47;;;;;;;;;5.25;3.75;;;;;10.46;73.81;101286.31;2383263;28;45427;-87
2022/11/25 05:17:57;;;;;;;;;5.50;4.00;;;;;10.47;73.75;101295.91;2386321;28;45480;-88
2022/11/25 05:19:08;;;;;;;;;11.00;4.25;;;;;10.48;73.74;101299.41;2383552;28;44826;-87
2022/11/25 05:20:18;;;;;;;;;7.50;5.00;;;;;10.46;73.83;101299.44;2383371;28;47025;-87
2022/11/25 05:21:28;;;;;;;;;5.50;2.75;;;;;10.46;73.72;101306.47;2386139;28;45207;-86
2022/11/25 05:22:39;;;;;;;;;5.25;5.00;;;;;10.45;74.14;101304.72;2390528;28;45672;-86
2022/11/25 05:23:49;;;;;;;;;9.00;6.75;;;;;10.46;74.04;101307.34;2391062;28;44618;-87
2022/11/25 05:25:00;;;;;;;;;10.75;6.00;;;;;10.50;74.11;101312.50;2389656;28;45461;-87
2022/11/25 05:26:10;;;;;;;;;8.75;5.75;;;;;10.48;74.44;101315.16;2375987;28;45245;-87
2022/11/25 05:27:21;;;;;;;;;6.75;4.25;;;;;10.49;74.48;101316.91;2383221;28;46929;-87
2022/11/25 05:28:32;;;;;;;;;6.75;5.00;;;;;10.48;74.24;101315.16;2386452;28;45232;-87
2022/11/25 05:29:42;;;;;;;;;5.50;3.25;;;;;10.49;74.26;101314.28;2393214;28;45534;-87
2022/11/25 05:30:53;;;;;;;;;7.00;6.75;;;;;10.49;74.16;101316.91;2393716;28;45196;-86
2022/11/25 05:32:04;;;;;;;;;8.00;6.00;;;;;10.51;74.13;101316.91;2393230;28;45438;-87
2022/11/25 05:33:15;;;;;;;;;5.00;5.00;;;;;10.50;74.33;101312.50;2391009;28;45187;-87
2022/11/25 05:34:25;;;;;;;;;6.50;6.00;;;;;10.52;74.47;101313.38;2383360;28;47127;-89
2022/11/25 05:35:36;;;;;;;;;8.75;5.25;;;;;10.50;73.99;101313.38;2391232;28;45441;-89
2022/11/25 05:36:46;;;;;;;;;11.00;5.00;;;;;10.51;74.06;101320.41;2383251;28;47027;-89
2022/11/25 05:37:59;;;;;;;;;7.00;4.25;;;;;10.51;74.07;101314.25;2383774;28;45323;-89
2022/11/25 05:39:10;;;;;;;;;11.00;7.00;;;;;10.52;74.21;101314.22;2389868;28;47293;-89
2022/11/25 05:40:20;;;;;;;;;6.00;5.50;;;;;10.51;74.33;101319.53;2381252;28;45239;-89
2022/11/25 05:41:30;;;;;;;;;11.50;8.50;;;;;10.50;74.05;101308.09;2386258;28;45217;-87
2022/11/25 05:42:41;;;;;;;;;11.50;6.75;;;;;10.52;74.21;101322.09;2393455;28;45290;-87
2022/11/25 05:43:51;;;;;;;;;7.25;4.00;;;;;10.52;73.88;101314.22;2383210;28;48272;-87